createdAt,value
2022-12-22T00:04:50.818Z,99156
2022-12-22T00:10:25.781Z,99149.8
2022-12-22T00:16:00.853Z,99143.6
2022-12-22T00:21:36.730Z,99141.2
2022-12-22T00:27:11.584Z,99137
2022-12-22T00:32:47.702Z,99134
2022-12-22T00:38:24.668Z,99127.3
2022-12-22T00:44:00.753Z,99132.7
2022-12-22T00:49:57.957Z,99138.5
2022-12-22T00:55:30.648Z,99138
2022-12-22T01:01:14.986Z,99133.9
2022-12-22T01:06:59.749Z,99124.5
2022-12-22T01:12:34.847Z,99123.1
2022-12-22T01:18:17.214Z,99114.8
2022-12-22T01:23:55.968Z,99111
2022-12-22T01:29:45.220Z,99122.9
2022-12-22T01:35:24.999Z,99123.5
2022-12-22T01:41:00.377Z,99132.6
2022-12-22T01:46:57.017Z,99144.4
2022-12-22T01:52:29.944Z,99155.7
2022-12-22T01:58:16.628Z,99162.4
2022-12-22T02:04:01.867Z,99170
2022-12-22T02:09:37.356Z,99180.1
2022-12-22T02:15:13.645Z,99181.8
2022-12-22T02:20:49.044Z,99186
2022-12-22T02:26:24.742Z,99180
2022-12-22T02:32:18.444Z,99166.8
2022-12-22T02:37:54.036Z,99162.4
2022-12-22T02:43:32.991Z,99156.5
2022-12-22T02:49:29.932Z,99149.1
2022-12-22T02:55:03.816Z,99141.1
2022-12-22T03:00:40.681Z,99141
2022-12-22T03:06:18.321Z,99121.9
2022-12-22T03:12:35.365Z,99125.4
2022-12-22T03:18:10.706Z,99118.5
2022-12-22T03:23:45.873Z,99115.6
2022-12-22T03:29:20.892Z,99110.3
2022-12-22T03:34:58.707Z,99092.6
2022-12-22T03:40:37.306Z,99083.7
2022-12-22T03:46:49.773Z,99087.5
2022-12-22T03:52:23.420Z,99091.5
2022-12-22T03:58:08.285Z,99089.1
2022-12-22T04:03:44.622Z,99090.8
2022-12-22T04:09:20.566Z,99097.4
2022-12-22T04:14:55.899Z,99096.1
2022-12-22T04:20:31.332Z,99094.4
2022-12-22T04:26:06.556Z,99100.3
2022-12-22T04:31:42.082Z,99097.5
2022-12-22T04:37:18.975Z,99097.3
2022-12-22T04:42:55.193Z,99093.9
2022-12-22T04:49:01.366Z,99092.9
2022-12-22T04:54:34.227Z,99086.9
2022-12-22T05:00:09.828Z,99086.7
2022-12-22T05:05:46.213Z,99093.9
2022-12-22T05:11:21.653Z,99100.8
2022-12-22T05:17:00.749Z,99094.1
2022-12-22T05:22:45.433Z,99103.6
2022-12-22T05:28:29.207Z,99109.4
2022-12-22T05:34:04.702Z,99110.9
2022-12-22T05:39:40.846Z,99102.5
2022-12-22T05:45:17.002Z,99094
2022-12-22T05:51:01.634Z,99105.8
2022-12-22T05:56:36.755Z,99113.5
2022-12-22T06:02:13.884Z,99116.6
2022-12-22T06:07:50.429Z,99110.6
2022-12-22T06:13:29.642Z,99124.1
2022-12-22T06:19:05.772Z,99128.8
2022-12-22T06:24:45.689Z,99121.8
2022-12-22T06:30:20.715Z,99120.8
2022-12-22T06:36:08.426Z,99120.6
2022-12-22T06:41:43.847Z,99121.3
2022-12-22T06:47:58.671Z,99112.2
2022-12-22T06:53:31.631Z,99112
2022-12-22T06:59:08.220Z,99124.6
2022-12-22T07:04:43.305Z,99135.8
2022-12-22T07:10:18.758Z,99147
2022-12-22T07:16:02.609Z,99145
2022-12-22T07:21:39.653Z,99136.8
2022-12-22T07:27:15.806Z,99134.6
2022-12-22T07:33:00.164Z,99133
2022-12-22T07:38:35.466Z,99133.1
2022-12-22T07:44:10.926Z,99145.4
2022-12-22T07:49:46.166Z,99147
2022-12-22T07:55:21.468Z,99141.9
2022-12-22T08:00:56.696Z,99146.7
2022-12-22T08:06:34.806Z,99165.9
2022-12-22T08:12:10.739Z,99166.6
2022-12-22T08:17:51.597Z,99158.9
2022-12-22T08:24:07.308Z,99157.9
2022-12-22T08:29:43.669Z,99157.2
2022-12-22T08:35:22.857Z,99160.4
2022-12-22T08:41:04.740Z,99164.2
2022-12-22T08:47:18.069Z,99159.2
2022-12-22T08:52:51.655Z,99165
2022-12-22T08:58:27.339Z,99160.8
2022-12-22T09:04:05.606Z,99154.4
2022-12-22T09:10:04.093Z,99150.7
2022-12-22T09:16:07.972Z,99152.3
2022-12-22T09:22:34.289Z,99157.6
2022-12-22T09:28:15.706Z,99157
2022-12-22T09:33:54.154Z,99163.1
2022-12-22T09:39:30.339Z,99167.4
2022-12-22T09:45:17.109Z,99162.7
2022-12-22T09:50:57.981Z,99169.5
2022-12-22T09:56:39.804Z,99173.3
2022-12-22T10:02:16.202Z,99177
2022-12-22T10:08:01.422Z,99182.5
2022-12-22T10:13:44.122Z,99185.2
2022-12-22T10:19:43.706Z,99180.9
2022-12-22T10:25:19.362Z,99173.3
2022-12-22T10:32:05.414Z,99156.8
2022-12-22T10:38:29.601Z,99142.1
2022-12-22T10:44:10.327Z,99132.6
2022-12-22T10:50:06.972Z,99125.8
2022-12-22T10:55:55.395Z,99116.1
2022-12-22T11:01:58.916Z,99103.3
2022-12-22T11:07:35.766Z,99094.9
2022-12-22T11:13:13.898Z,99075.4
2022-12-22T11:18:49.768Z,99067.8
2022-12-22T11:24:27.819Z,99066.6
2022-12-22T11:30:03.498Z,99055.6
2022-12-22T11:35:42.606Z,99060.5
2022-12-22T11:41:31.029Z,99065.6
2022-12-22T11:47:28.185Z,99050.2
2022-12-22T11:53:01.140Z,99041
2022-12-22T11:58:59.625Z,99043.4
2022-12-22T12:05:37.913Z,99034.4
2022-12-22T12:11:13.800Z,99008.6
2022-12-22T12:16:49.298Z,99004.7
2022-12-22T12:22:37.218Z,98998.3
2022-12-22T12:28:21.425Z,99000.2
2022-12-22T12:34:04.922Z,99003.4
2022-12-22T12:39:40.007Z,99014.1
2022-12-22T12:45:17.844Z,99009.7
2022-12-22T12:50:57.119Z,99009.2
2022-12-22T12:56:32.460Z,99010.4
2022-12-22T13:02:13.467Z,99008.1
2022-12-22T13:08:12.116Z,99009.3
2022-12-22T13:14:13.420Z,99012.4
2022-12-22T13:20:01.780Z,99006.9
2022-12-22T13:25:58.177Z,99014.4
2022-12-22T13:31:37.237Z,99007.6
2022-12-22T13:37:14.335Z,99005.3
2022-12-22T13:42:50.669Z,98996
2022-12-22T13:48:47.786Z,98993.9
2022-12-22T13:54:21.046Z,98998.6
2022-12-22T14:00:02.212Z,98993.5
2022-12-22T14:05:38.695Z,99003.7
2022-12-22T14:11:22.497Z,98994.3
2022-12-22T14:17:31.445Z,98992.1
2022-12-22T14:23:29.497Z,98973.3
2022-12-22T14:29:39.929Z,98972.4
2022-12-22T14:35:32.477Z,98972.1
2022-12-22T14:42:44.876Z,98982.2
2022-12-22T14:48:41.686Z,98992.5
2022-12-22T14:54:14.405Z,98997.4
2022-12-22T14:59:49.969Z,99005.4
2022-12-22T15:05:25.430Z,99017.1
2022-12-22T15:11:04.181Z,99026.9
2022-12-22T15:16:39.812Z,99038.3
2022-12-22T15:22:17.380Z,99050
2022-12-22T15:27:58.365Z,99045.4
2022-12-22T15:33:39.807Z,99038.5
2022-12-22T15:39:15.315Z,99039.8
2022-12-22T15:45:02.025Z,99045.9
2022-12-22T15:51:00.158Z,99039.5
2022-12-22T15:56:43.334Z,99035.3
2022-12-22T16:03:21.841Z,99044.2
2022-12-22T16:09:08.923Z,99041.7
2022-12-22T16:14:51.437Z,99034.6
2022-12-22T16:20:43.824Z,99021.2
2022-12-22T16:26:18.798Z,99017.1
2022-12-22T16:31:56.002Z,99015.4
2022-12-22T16:37:31.766Z,99012.1
2022-12-22T16:44:06.116Z,98988
2022-12-22T16:50:19.432Z,98981.2
2022-12-22T16:56:04.772Z,98975.8
2022-12-22T17:02:47.605Z,98978.6
2022-12-22T17:08:50.544Z,98994.9
2022-12-22T17:14:48.218Z,99012.5
2022-12-22T17:20:35.977Z,99011.6
2022-12-22T17:26:10.819Z,99007.6
2022-12-22T17:31:57.642Z,99008.1
2022-12-22T17:37:42.741Z,99012.6
2022-12-22T17:43:20.873Z,99016.5
2022-12-22T17:49:18.050Z,99025.6
2022-12-22T17:54:51.302Z,99031.7
2022-12-22T18:00:39.300Z,99026.3
2022-12-22T18:06:20.473Z,99022.7
2022-12-22T18:11:57.675Z,99033.9
2022-12-22T18:17:59.295Z,99036.4
2022-12-22T18:23:51.340Z,99042.5
2022-12-22T18:29:47.888Z,99055.7
2022-12-22T18:35:30.323Z,99060.2
2022-12-22T18:41:29.312Z,99066.6
2022-12-22T18:47:47.659Z,99060.3
2022-12-22T18:53:20.878Z,99059.3
2022-12-22T18:59:00.214Z,99064.2
2022-12-22T19:04:35.368Z,99072.3
2022-12-22T19:10:21.336Z,99066.5
2022-12-22T19:15:59.617Z,99056
2022-12-22T19:21:36.087Z,99044.3
2022-12-22T19:27:14.184Z,99051.5
2022-12-22T19:32:51.042Z,99051.8
2022-12-22T19:38:27.102Z,99057.7
2022-12-22T19:44:28.290Z,99068.3
2022-12-22T19:50:03.712Z,99066.8
2022-12-22T19:55:38.779Z,99074
2022-12-22T20:01:16.171Z,99069.7
2022-12-22T20:07:12.622Z,99064.6
2022-12-22T20:12:59.039Z,99062.9
2022-12-22T20:18:42.566Z,99056.7
2022-12-22T20:24:21.142Z,99060.2
2022-12-22T20:30:04.319Z,99055.3
2022-12-22T20:35:42.852Z,99059.3
2022-12-22T20:41:40.462Z,99065.9
2022-12-22T20:47:28.138Z,99061.6
2022-12-22T20:53:02.884Z,99057.6
2022-12-22T20:58:46.371Z,99056.9
2022-12-22T21:04:21.784Z,99055.8
2022-12-22T21:09:58.179Z,99042.8
2022-12-22T21:15:49.178Z,99033.5
2022-12-22T21:21:29.166Z,99037.3
2022-12-22T21:27:10.876Z,99044.4
2022-12-22T21:32:46.317Z,99050.9
2022-12-22T21:38:27.618Z,99046.6
2022-12-22T21:44:07.872Z,99037.7
2022-12-22T21:49:46.372Z,99050.2
2022-12-22T21:55:38.581Z,99049.5
2022-12-22T22:01:14.083Z,99040.6
2022-12-22T22:06:50.767Z,99031.3
2022-12-22T22:12:28.958Z,99034.1
2022-12-22T22:18:34.653Z,99026.3
2022-12-22T22:25:06.025Z,99027.3
2022-12-22T22:30:42.535Z,99027.4
2022-12-22T22:37:06.518Z,99014.5
2022-12-22T22:43:12.040Z,99010.4
2022-12-22T22:49:14.126Z,99008.9
2022-12-22T22:54:47.703Z,99006.7
2022-12-22T23:00:23.206Z,99004.4
2022-12-22T23:06:11.875Z,99010.7
2022-12-22T23:11:55.007Z,99004.5
2022-12-22T23:17:30.390Z,99006.5
2022-12-22T23:23:07.907Z,99001.6
2022-12-22T23:28:43.236Z,98992.3
2022-12-22T23:34:48.966Z,98989.1
2022-12-22T23:40:55.053Z,98984
2022-12-22T23:46:52.849Z,98974
2022-12-22T23:52:28.266Z,98966.6
2022-12-22T23:58:08.652Z,98961.3
